createdAt,value
2015-05-13T00:00:07.540Z,21.3
2015-05-13T00:00:25.792Z,21.3
2015-05-13T00:00:44.026Z,21.3
2015-05-13T00:01:02.292Z,21.3
2015-05-13T00:01:20.542Z,21.3
2015-05-13T00:01:38.795Z,21.3
2015-05-13T00:01:57.045Z,21.4
2015-05-13T00:02:15.295Z,21.3
2015-05-13T00:02:33.531Z,21.3
2015-05-13T00:02:51.781Z,21.4
2015-05-13T00:03:10.047Z,21.4
2015-05-13T00:03:28.299Z,21.3
2015-05-13T00:03:46.549Z,21.4
2015-05-13T00:04:04.783Z,21.3
2015-05-13T00:04:23.049Z,21.4
2015-05-13T00:04:41.302Z,21.3
2015-05-13T00:04:59.536Z,21.3
2015-05-13T00:05:17.786Z,21.3
2015-05-13T00:05:36.038Z,21.3
2015-05-13T00:05:54.288Z,21.4
2015-05-13T00:06:12.538Z,21.3
2015-05-13T00:06:30.790Z,21.4
2015-05-13T00:06:49.040Z,21.3
2015-05-13T00:07:07.275Z,21.3
2015-05-13T00:07:25.528Z,21.3
2015-05-13T00:07:43.778Z,21.3
2015-05-13T00:08:02.028Z,21.3
2015-05-13T00:08:20.278Z,21.3
2015-05-13T00:08:38.530Z,21.3
2015-05-13T00:08:56.764Z,21.3
2015-05-13T00:09:15.014Z,21.4
2015-05-13T00:09:33.283Z,21.3
2015-05-13T00:09:51.533Z,21.4
2015-05-13T00:10:09.767Z,21.4
2015-05-13T00:10:28.035Z,21.4
2015-05-13T00:10:46.285Z,21.4
2015-05-13T00:11:04.519Z,21.3
2015-05-13T00:11:22.769Z,21.3
2015-05-13T00:11:41.020Z,21.3
2015-05-13T00:11:59.270Z,21.3
2015-05-13T00:12:17.520Z,21.3
2015-05-13T00:12:35.773Z,21.3
2015-05-13T00:12:54.023Z,21.3
2015-05-13T00:13:12.258Z,21.3
2015-05-13T00:13:30.526Z,21.3
2015-05-13T00:13:48.761Z,21.3
2015-05-13T00:14:07.026Z,21.3
2015-05-13T00:14:25.261Z,21.3
2015-05-13T00:14:43.513Z,21.3
2015-05-13T00:15:01.763Z,21.3
2015-05-13T00:15:19.997Z,21.3
2015-05-13T00:15:38.265Z,21.3
2015-05-13T00:15:56.499Z,21.3
2015-05-13T00:16:14.749Z,21.3
2015-05-13T00:16:33.002Z,21.3
2015-05-13T00:16:51.252Z,21.3
2015-05-13T00:17:09.502Z,21.3
2015-05-13T00:17:27.754Z,21.3
2015-05-13T00:17:46.004Z,21.3
2015-05-13T00:18:04.254Z,21.3
2015-05-13T00:18:22.504Z,21.3
2015-05-13T00:18:40.756Z,21.3
2015-05-13T00:18:59.006Z,21.3
2015-05-13T00:19:17.240Z,21.3
2015-05-13T00:19:35.492Z,21.3
2015-05-13T00:19:53.742Z,21.3
2015-05-13T00:20:11.992Z,21.3
2015-05-13T00:20:30.244Z,21.3
2015-05-13T00:20:48.494Z,21.3
2015-05-13T00:21:06.744Z,21.3
2015-05-13T00:21:24.979Z,21.3
2015-05-13T00:21:43.247Z,21.3
2015-05-13T00:22:01.497Z,21.3
2015-05-13T00:22:19.747Z,21.3
2015-05-13T00:22:37.999Z,21.3
2015-05-13T00:22:56.234Z,21.3
2015-05-13T00:23:14.499Z,21.3
2015-05-13T00:23:32.737Z,21.3
2015-05-13T00:23:51.002Z,21.3
2015-05-13T00:24:09.237Z,21.3
2015-05-13T00:24:27.487Z,21.3
2015-05-13T00:24:45.739Z,21.3
2015-05-13T00:25:03.973Z,21.3
2015-05-13T00:25:22.223Z,21.3
2015-05-13T00:25:40.476Z,21.3
2015-05-13T00:25:58.710Z,21.3
2015-05-13T00:26:16.960Z,21.3
2015-05-13T00:26:35.212Z,21.3
2015-05-13T00:26:53.462Z,21.3
2015-05-13T00:27:11.712Z,21.3
2015-05-13T00:27:29.964Z,21.3
2015-05-13T00:27:48.214Z,21.3
2015-05-13T00:28:06.464Z,21.3
2015-05-13T00:28:24.714Z,21.3
2015-05-13T00:28:42.982Z,21.3
2015-05-13T00:29:01.232Z,21.3
2015-05-13T00:29:19.482Z,21.3
2015-05-13T00:29:37.735Z,21.3
2015-05-13T00:29:55.985Z,21.3
2015-05-13T00:30:14.235Z,21.3
2015-05-13T00:30:32.487Z,21.3
2015-05-13T00:30:50.737Z,21.3
2015-05-13T00:31:08.987Z,21.3
2015-05-13T00:31:27.237Z,21.3
2015-05-13T00:31:45.473Z,21.3
2015-05-13T00:32:03.723Z,21.3
2015-05-13T00:32:21.973Z,21.3
2015-05-13T00:32:40.211Z,21.3
2015-05-13T00:32:58.461Z,21.2
2015-05-13T00:33:16.711Z,21.2
2015-05-13T00:33:34.963Z,21.2
2015-05-13T00:33:53.213Z,21.2
2015-05-13T00:34:11.463Z,21.2
2015-05-13T00:34:29.713Z,21.2
2015-05-13T00:34:47.965Z,21.2
2015-05-13T00:35:06.215Z,21.2
2015-05-13T00:35:24.449Z,21.2
2015-05-13T00:35:42.701Z,21.2
2015-05-13T00:36:00.951Z,21.3
2015-05-13T00:36:19.201Z,21.2
2015-05-13T00:36:37.454Z,21.2
2015-05-13T00:36:55.689Z,21.2
2015-05-13T00:37:13.939Z,21.2
2015-05-13T00:37:32.189Z,21.3
2015-05-13T00:37:50.456Z,21.2
2015-05-13T00:38:08.706Z,21.2
2015-05-13T00:38:26.941Z,21.3
2015-05-13T00:38:45.194Z,21.3
2015-05-13T00:39:03.459Z,21.3
2015-05-13T00:39:21.694Z,21.3
2015-05-13T00:39:39.946Z,21.3
2015-05-13T00:39:58.196Z,21.3
2015-05-13T00:40:16.446Z,21.3
2015-05-13T00:40:34.698Z,21.3
2015-05-13T00:40:52.948Z,21.3
2015-05-13T00:41:11.198Z,21.3
2015-05-13T00:41:29.448Z,21.3
2015-05-13T00:41:47.685Z,21.3
2015-05-13T00:42:05.935Z,21.3
2015-05-13T00:42:24.185Z,21.3
2015-05-13T00:42:42.453Z,21.3
2015-05-13T00:43:00.703Z,21.3
2015-05-13T00:43:18.953Z,21.3
2015-05-13T00:43:37.189Z,21.3
2015-05-13T00:43:55.439Z,21.3
2015-05-13T00:44:13.705Z,21.3
2015-05-13T00:44:31.955Z,21.3
2015-05-13T00:44:50.207Z,21.3
2015-05-13T00:45:08.457Z,21.3
2015-05-13T00:45:26.707Z,21.3
2015-05-13T00:45:44.960Z,21.3
2015-05-13T00:46:03.210Z,21.3
2015-05-13T00:46:21.460Z,21.3
2015-05-13T00:46:39.712Z,21.3
2015-05-13T00:46:57.946Z,21.3
2015-05-13T00:47:16.196Z,21.3
2015-05-13T00:47:34.446Z,21.3
2015-05-13T00:47:52.710Z,21.3
2015-05-13T00:48:10.960Z,21.3
2015-05-13T00:48:29.210Z,21.3
2015-05-13T00:48:47.476Z,21.3
2015-05-13T00:49:05.726Z,21.3
2015-05-13T00:49:23.976Z,21.3
2015-05-13T00:49:42.243Z,21.3
2015-05-13T00:50:00.477Z,21.3
2015-05-13T00:50:18.727Z,21.3
2015-05-13T00:50:36.977Z,21.3
2015-05-13T00:50:55.243Z,21.3
2015-05-13T00:51:13.493Z,21.3
2015-05-13T00:51:31.743Z,21.3
2015-05-13T00:51:50.009Z,21.3
2015-05-13T00:52:08.259Z,21.3
2015-05-13T00:52:26.494Z,21.3
2015-05-13T00:52:44.753Z,21.3
2015-05-13T00:53:03.003Z,21.3
2015-05-13T00:53:21.253Z,21.3
2015-05-13T00:53:39.510Z,21.3
2015-05-13T00:53:57.760Z,21.3
2015-05-13T00:54:16.010Z,21.3
2015-05-13T00:54:34.260Z,21.3
2015-05-13T00:54:52.517Z,21.3
2015-05-13T00:55:10.751Z,21.3
2015-05-13T00:55:29.001Z,21.3
2015-05-13T00:55:47.258Z,21.3
2015-05-13T00:56:05.508Z,21.3
2015-05-13T00:56:23.758Z,21.3
2015-05-13T00:56:42.015Z,21.3
2015-05-13T00:57:00.249Z,21.3
2015-05-13T00:57:18.499Z,21.3
2015-05-13T00:57:36.749Z,21.3
2015-05-13T00:57:55.004Z,21.3
2015-05-13T00:58:13.254Z,21.3
2015-05-13T00:58:31.489Z,21.3
2015-05-13T00:58:49.743Z,21.3
2015-05-13T00:59:07.993Z,21.3
2015-05-13T00:59:26.243Z,21.3
2015-05-13T00:59:44.496Z,21.3
2015-05-13T01:00:02.746Z,21.3
2015-05-13T01:00:20.996Z,21.3
2015-05-13T01:00:39.246Z,21.3
2015-05-13T01:00:57.500Z,21.3
2015-05-13T01:01:15.750Z,21.3
2015-05-13T01:01:33.984Z,21.3
2015-05-13T01:01:52.238Z,21.3
2015-05-13T01:02:10.488Z,21.3
2015-05-13T01:02:28.738Z,21.3
2015-05-13T01:02:46.991Z,21.3
2015-05-13T01:03:05.241Z,21.3
2015-05-13T01:03:23.476Z,21.3
2015-05-13T01:03:41.729Z,21.3
2015-05-13T01:03:59.979Z,21.3
2015-05-13T01:04:18.229Z,21.3
2015-05-13T01:04:36.479Z,21.3
2015-05-13T01:04:54.733Z,21.3
2015-05-13T01:05:12.983Z,21.3
2015-05-13T01:05:31.076Z,21.3
2015-05-13T01:05:49.329Z,21.3
2015-05-13T01:06:07.579Z,21.3
2015-05-13T01:06:25.814Z,21.3
2015-05-13T01:06:44.067Z,21.3
2015-05-13T01:07:02.176Z,21.3
2015-05-13T01:07:20.426Z,21.3
2015-05-13T01:07:38.660Z,21.3
2015-05-13T01:07:56.912Z,21.2
2015-05-13T01:08:15.162Z,21.2
2015-05-13T01:08:33.412Z,21.3
2015-05-13T01:08:51.712Z,21.3
2015-05-13T01:09:09.931Z,21.3
2015-05-13T01:09:28.181Z,21.3
2015-05-13T01:09:46.434Z,21.2
2015-05-13T01:10:04.700Z,21.3
2015-05-13T01:10:22.965Z,21.2
2015-05-13T01:10:41.215Z,21.3
2015-05-13T01:10:59.452Z,21.2
2015-05-13T01:11:17.717Z,21.3
2015-05-13T01:11:35.967Z,21.3
2015-05-13T01:11:54.221Z,21.3
2015-05-13T01:12:12.471Z,21.3
2015-05-13T01:12:30.721Z,21.3
2015-05-13T01:12:48.957Z,21.3
2015-05-13T01:13:07.222Z,21.3
2015-05-13T01:13:25.472Z,21.3
2015-05-13T01:13:43.722Z,21.2
2015-05-13T01:14:01.975Z,21.2
2015-05-13T01:14:20.225Z,21.3
2015-05-13T01:14:38.522Z,21.2
2015-05-13T01:14:56.728Z,21.2
2015-05-13T01:15:14.978Z,21.2
2015-05-13T01:15:33.228Z,21.2
2015-05-13T01:15:51.479Z,21.2
2015-05-13T01:16:09.729Z,21.2
2015-05-13T01:16:27.979Z,21.2
2015-05-13T01:16:46.232Z,21.2
2015-05-13T01:17:04.482Z,21.2
2015-05-13T01:17:22.732Z,21.2
2015-05-13T01:17:40.998Z,21.2
2015-05-13T01:17:59.250Z,21.2
2015-05-13T01:18:17.500Z,21.2
2015-05-13T01:18:35.750Z,21.2
2015-05-13T01:18:54.002Z,21.2
2015-05-13T01:19:12.252Z,21.2
2015-05-13T01:19:30.518Z,21.2
2015-05-13T01:19:48.771Z,21.2
2015-05-13T01:20:07.021Z,21.2
2015-05-13T01:20:25.271Z,21.2
2015-05-13T01:20:43.536Z,21.2
2015-05-13T01:21:01.788Z,21.2
2015-05-13T01:21:20.038Z,21.2
2015-05-13T01:21:38.288Z,21.2
2015-05-13T01:21:56.540Z,21.2
2015-05-13T01:22:14.790Z,21.2
2015-05-13T01:22:33.040Z,21.2
2015-05-13T01:22:51.309Z,21.2
2015-05-13T01:23:09.543Z,21.2
2015-05-13T01:23:27.809Z,21.2
2015-05-13T01:23:46.043Z,21.2
2015-05-13T01:24:04.295Z,21.2
2015-05-13T01:24:22.545Z,21.2
2015-05-13T01:24:40.780Z,21.2
2015-05-13T01:24:59.032Z,21.2
2015-05-13T01:25:17.282Z,21.2
2015-05-13T01:25:35.532Z,21.2
2015-05-13T01:25:53.784Z,21.2
2015-05-13T01:26:12.034Z,21.2
2015-05-13T01:26:30.284Z,21.2
2015-05-13T01:26:48.521Z,21.2
2015-05-13T01:27:06.771Z,21.2
2015-05-13T01:27:25.021Z,21.2
2015-05-13T01:27:43.271Z,21.2
2015-05-13T01:28:01.523Z,21.2
2015-05-13T01:28:19.773Z,21.2
2015-05-13T01:28:38.023Z,21.2
2015-05-13T01:28:56.276Z,21.2
2015-05-13T01:29:14.526Z,21.2
2015-05-13T01:29:32.788Z,21.2
2015-05-13T01:29:51.040Z,21.2
2015-05-13T01:30:09.290Z,21.2
2015-05-13T01:30:27.540Z,21.2
2015-05-13T01:30:45.790Z,21.2
2015-05-13T01:31:04.042Z,21.2
2015-05-13T01:31:22.276Z,21.2
2015-05-13T01:31:40.542Z,21.2
2015-05-13T01:31:58.778Z,21.2
2015-05-13T01:32:17.028Z,21.2
2015-05-13T01:32:35.278Z,21.2
2015-05-13T01:32:53.531Z,21.2
2015-05-13T01:33:11.781Z,21.2
2015-05-13T01:33:29.859Z,21.2
2015-05-13T01:33:48.125Z,21.2
2015-05-13T01:34:06.377Z,21.2
2015-05-13T01:34:24.627Z,21.2
2015-05-13T01:34:42.877Z,21.1
2015-05-13T01:35:01.130Z,21.1
2015-05-13T01:35:19.380Z,21.1
2015-05-13T01:35:37.614Z,21.2
2015-05-13T01:35:55.866Z,21.2
2015-05-13T01:36:14.116Z,21.2
2015-05-13T01:36:32.366Z,21.1
2015-05-13T01:36:50.618Z,21.2
2015-05-13T01:37:08.852Z,21.2
2015-05-13T01:37:27.102Z,21.2
2015-05-13T01:37:45.352Z,21.2
2015-05-13T01:38:03.620Z,21.1
2015-05-13T01:38:21.854Z,21.2
2015-05-13T01:38:40.104Z,21.2
2015-05-13T01:38:58.357Z,21.2
2015-05-13T01:39:16.607Z,21.2
2015-05-13T01:39:34.842Z,21.2
2015-05-13T01:39:53.095Z,21.2
2015-05-13T01:40:11.345Z,21.2
2015-05-13T01:40:29.595Z,21.2
2015-05-13T01:40:47.845Z,21.2
2015-05-13T01:41:06.097Z,21.2
2015-05-13T01:41:24.347Z,21.2
2015-05-13T01:41:42.597Z,21.2
2015-05-13T01:42:00.849Z,21.2
2015-05-13T01:42:19.083Z,21.2
2015-05-13T01:42:37.349Z,21.2
2015-05-13T01:42:55.601Z,21.2
2015-05-13T01:43:13.851Z,21.2
2015-05-13T01:43:32.101Z,21.2
2015-05-13T01:43:50.351Z,21.2
2015-05-13T01:44:08.603Z,21.1
2015-05-13T01:44:26.837Z,21.2
2015-05-13T01:44:45.087Z,21.2
2015-05-13T01:45:03.339Z,21.2
2015-05-13T01:45:21.589Z,21.1
2015-05-13T01:45:39.824Z,21.2
2015-05-13T01:45:58.077Z,21.2
2015-05-13T01:46:16.327Z,21.1
2015-05-13T01:46:34.577Z,21.2
2015-05-13T01:46:52.813Z,21.2
2015-05-13T01:47:11.063Z,21.1
2015-05-13T01:47:29.313Z,21.1
2015-05-13T01:47:47.563Z,21.2
2015-05-13T01:48:05.816Z,21.1
2015-05-13T01:48:24.066Z,21.1
2015-05-13T01:48:42.316Z,21.1
2015-05-13T01:49:00.568Z,21.1
2015-05-13T01:49:18.802Z,21.1
2015-05-13T01:49:37.052Z,21.1
2015-05-13T01:49:55.304Z,21.1
2015-05-13T01:50:13.554Z,21.1
2015-05-13T01:50:31.820Z,21.1
2015-05-13T01:50:50.054Z,21.1
2015-05-13T01:51:08.307Z,21.1
2015-05-13T01:51:26.557Z,21.1
2015-05-13T01:51:44.807Z,21.1
2015-05-13T01:52:03.044Z,21.1
2015-05-13T01:52:21.294Z,21.1
2015-05-13T01:52:39.544Z,21.1
2015-05-13T01:52:57.796Z,21.1
2015-05-13T01:53:16.061Z,21.1
2015-05-13T01:53:34.296Z,21.1
2015-05-13T01:53:52.561Z,21.1
2015-05-13T01:54:10.799Z,21.1
2015-05-13T01:54:29.049Z,21.1
2015-05-13T01:54:47.299Z,21.1
2015-05-13T01:55:05.551Z,21.1
2015-05-13T01:55:23.801Z,21.1
2015-05-13T01:55:42.035Z,21.1
2015-05-13T01:56:00.287Z,21.1
2015-05-13T01:56:18.537Z,21.1
2015-05-13T01:56:36.818Z,21.1
2015-05-13T01:56:55.053Z,21.1
2015-05-13T01:57:13.306Z,21.1
2015-05-13T01:57:31.556Z,21.1
2015-05-13T01:57:49.806Z,21.1
2015-05-13T01:58:08.058Z,21.1
2015-05-13T01:58:26.308Z,21.1
2015-05-13T01:58:44.542Z,21.1
2015-05-13T01:59:02.794Z,21.1
2015-05-13T01:59:21.044Z,21.1
2015-05-13T01:59:39.294Z,21.1
2015-05-13T01:59:57.547Z,21.1
2015-05-13T02:00:15.781Z,21.1
2015-05-13T02:00:34.031Z,21.1
2015-05-13T02:00:52.266Z,21.1
2015-05-13T02:01:10.518Z,21.1
2015-05-13T02:01:28.768Z,21.1
2015-05-13T02:01:47.018Z,21.1
2015-05-13T02:02:05.271Z,21.1
2015-05-13T02:02:23.521Z,21.1
2015-05-13T02:02:41.771Z,21.1
2015-05-13T02:03:00.022Z,21.1
2015-05-13T02:03:18.272Z,21.1
2015-05-13T02:03:36.522Z,21.1
2015-05-13T02:03:54.772Z,21.1
2015-05-13T02:04:13.008Z,21.1
2015-05-13T02:04:31.258Z,21.1
2015-05-13T02:04:49.508Z,21.1
2015-05-13T02:05:07.761Z,21.1
2015-05-13T02:05:26.011Z,21.1
2015-05-13T02:05:44.261Z,21.1
2015-05-13T02:06:02.513Z,21.1
2015-05-13T02:06:20.763Z,21.1
2015-05-13T02:06:39.013Z,21.1
2015-05-13T02:06:57.263Z,21.1
2015-05-13T02:07:15.516Z,21.1
2015-05-13T02:07:33.751Z,21.1
2015-05-13T02:07:52.016Z,21.1
2015-05-13T02:08:10.253Z,21.1
2015-05-13T02:08:28.503Z,21.1
2015-05-13T02:08:46.753Z,21.1
2015-05-13T02:09:05.005Z,21.1
2015-05-13T02:09:23.239Z,21.1
2015-05-13T02:09:41.489Z,21.1
2015-05-13T02:09:59.739Z,21.1
2015-05-13T02:10:18.007Z,21.1
2015-05-13T02:10:36.257Z,21.1
2015-05-13T02:10:54.507Z,21.1
2015-05-13T02:11:12.760Z,21
2015-05-13T02:11:31.010Z,21
2015-05-13T02:11:49.244Z,21
2015-05-13T02:12:07.497Z,21
2015-05-13T02:12:25.731Z,21
2015-05-13T02:12:43.981Z,21
2015-05-13T02:13:02.233Z,21
2015-05-13T02:13:20.468Z,21
2015-05-13T02:13:38.733Z,21
2015-05-13T02:13:56.968Z,21
2015-05-13T02:14:15.220Z,21
2015-05-13T02:14:33.470Z,21
2015-05-13T02:14:51.720Z,21
2015-05-13T02:15:09.972Z,21
2015-05-13T02:15:28.222Z,21
2015-05-13T02:15:46.472Z,21
2015-05-13T02:16:04.709Z,21
2015-05-13T02:16:22.975Z,21
2015-05-13T02:16:41.209Z,21
2015-05-13T02:16:59.443Z,21
2015-05-13T02:17:17.695Z,21
2015-05-13T02:17:35.945Z,21
2015-05-13T02:17:54.195Z,21
2015-05-13T02:18:12.447Z,21
2015-05-13T02:18:30.697Z,21
2015-05-13T02:18:48.932Z,21
2015-05-13T02:19:07.184Z,21
2015-05-13T02:19:25.418Z,21
2015-05-13T02:19:43.668Z,21
2015-05-13T02:20:01.918Z,21
2015-05-13T02:20:20.155Z,21
2015-05-13T02:20:38.405Z,21
2015-05-13T02:20:56.639Z,21
2015-05-13T02:21:14.892Z,21
2015-05-13T02:21:33.142Z,21
2015-05-13T02:21:51.392Z,21
2015-05-13T02:22:09.628Z,21
2015-05-13T02:22:27.878Z,21
2015-05-13T02:22:46.113Z,21
2015-05-13T02:23:04.366Z,21
2015-05-13T02:23:22.600Z,21
2015-05-13T02:23:40.850Z,21
2015-05-13T02:23:59.100Z,21
2015-05-13T02:24:17.336Z,21
2015-05-13T02:24:35.586Z,21
2015-05-13T02:24:53.821Z,21
2015-05-13T02:25:12.073Z,21
2015-05-13T02:25:30.323Z,21
2015-05-13T02:25:48.557Z,21
2015-05-13T02:26:06.794Z,21
2015-05-13T02:26:25.044Z,21
2015-05-13T02:26:43.294Z,21
2015-05-13T02:27:01.544Z,21
2015-05-13T02:27:19.781Z,21
2015-05-13T02:27:38.031Z,21
2015-05-13T02:27:56.265Z,21
2015-05-13T02:28:14.533Z,21
2015-05-13T02:28:32.767Z,21
2015-05-13T02:28:51.017Z,21
2015-05-13T02:29:09.269Z,21
2015-05-13T02:29:27.504Z,21
2015-05-13T02:29:45.754Z,21
2015-05-13T02:30:04.004Z,21
2015-05-13T02:30:22.240Z,21
2015-05-13T02:30:40.490Z,21
2015-05-13T02:30:58.724Z,21
2015-05-13T02:31:16.977Z,21
2015-05-13T02:31:35.227Z,21
2015-05-13T02:31:53.462Z,21
2015-05-13T02:32:11.715Z,21
2015-05-13T02:32:29.949Z,21
2015-05-13T02:32:48.199Z,21
2015-05-13T02:33:06.435Z,21
2015-05-13T02:33:24.685Z,21
2015-05-13T02:33:42.935Z,21
2015-05-13T02:34:01.185Z,21
2015-05-13T02:34:19.423Z,21
2015-05-13T02:34:37.657Z,21
2015-05-13T02:34:55.907Z,21
2015-05-13T02:35:14.174Z,21
2015-05-13T02:35:32.393Z,21
2015-05-13T02:35:50.643Z,21
2015-05-13T02:36:08.879Z,21
2015-05-13T02:36:27.145Z,21
2015-05-13T02:36:45.379Z,21
2015-05-13T02:37:03.629Z,21
2015-05-13T02:37:21.866Z,21
2015-05-13T02:37:40.116Z,21
2015-05-13T02:37:58.366Z,21
2015-05-13T02:38:16.618Z,21
2015-05-13T02:38:34.868Z,21
2015-05-13T02:38:53.103Z,21
2015-05-13T02:39:11.356Z,21
2015-05-13T02:39:29.590Z,21
2015-05-13T02:39:47.840Z,21
2015-05-13T02:40:06.075Z,21
2015-05-13T02:40:24.342Z,21
2015-05-13T02:40:42.577Z,21
2015-05-13T02:41:00.827Z,21
2015-05-13T02:41:19.063Z,21
2015-05-13T02:41:37.313Z,21
2015-05-13T02:41:55.563Z,21
2015-05-13T02:42:13.800Z,21
2015-05-13T02:42:32.035Z,21
2015-05-13T02:42:50.285Z,21
2015-05-13T02:43:08.537Z,21
2015-05-13T02:43:26.787Z,21
2015-05-13T02:43:45.021Z,21
2015-05-13T02:44:03.255Z,21
2015-05-13T02:44:21.523Z,21
2015-05-13T02:44:39.757Z,21
2015-05-13T02:44:58.007Z,21
2015-05-13T02:45:16.244Z,21
2015-05-13T02:45:34.494Z,21
2015-05-13T02:45:52.744Z,21
2015-05-13T02:46:10.980Z,21
2015-05-13T02:46:29.230Z,21
2015-05-13T02:46:47.465Z,21
2015-05-13T02:47:05.715Z,21
2015-05-13T02:47:23.969Z,21
2015-05-13T02:47:42.203Z,21
2015-05-13T02:48:00.437Z,21
2015-05-13T02:48:18.689Z,21
2015-05-13T02:48:36.939Z,21
2015-05-13T02:48:55.174Z,21
2015-05-13T02:49:13.425Z,21
2015-05-13T02:49:31.659Z,21
2015-05-13T02:49:49.893Z,21
2015-05-13T02:50:08.143Z,21
2015-05-13T02:50:26.397Z,21
2015-05-13T02:50:44.632Z,21
2015-05-13T02:51:02.882Z,21
2015-05-13T02:51:21.133Z,21
2015-05-13T02:51:39.383Z,21
2015-05-13T02:51:57.617Z,21
2015-05-13T02:52:15.870Z,21
2015-05-13T02:52:34.105Z,21
2015-05-13T02:52:52.355Z,21
2015-05-13T02:53:10.591Z,21
2015-05-13T02:53:28.841Z,21
2015-05-13T02:53:47.091Z,21
2015-05-13T02:54:05.325Z,21
2015-05-13T02:54:23.577Z,21
2015-05-13T02:54:41.827Z,21
2015-05-13T02:55:00.062Z,21
2015-05-13T02:55:18.314Z,21
2015-05-13T02:55:36.548Z,21
2015-05-13T02:55:54.798Z,21
2015-05-13T02:56:13.035Z,21
2015-05-13T02:56:31.285Z,21
2015-05-13T02:56:49.535Z,21
2015-05-13T02:57:07.770Z,21
2015-05-13T02:57:26.022Z,21
2015-05-13T02:57:44.256Z,21
2015-05-13T02:58:02.506Z,21
2015-05-13T02:58:20.759Z,21
2015-05-13T02:58:39.009Z,21
2015-05-13T02:58:57.244Z,21
2015-05-13T02:59:15.496Z,21
2015-05-13T02:59:33.730Z,21
2015-05-13T02:59:51.996Z,21
2015-05-13T03:00:10.230Z,21
2015-05-13T03:00:28.487Z,21
2015-05-13T03:00:46.721Z,21
2015-05-13T03:01:04.971Z,21
2015-05-13T03:01:23.223Z,21
2015-05-13T03:01:41.473Z,21
2015-05-13T03:01:59.723Z,21
2015-05-13T03:02:17.976Z,21
2015-05-13T03:02:36.211Z,21
2015-05-13T03:02:54.461Z,21
2015-05-13T03:03:12.711Z,21
2015-05-13T03:03:30.947Z,21
2015-05-13T03:03:49.197Z,21
2015-05-13T03:04:07.447Z,20.9
2015-05-13T03:04:25.684Z,20.9
2015-05-13T03:04:43.934Z,20.9
2015-05-13T03:05:02.184Z,20.9
2015-05-13T03:05:20.436Z,20.9
2015-05-13T03:05:38.671Z,20.9
2015-05-13T03:05:56.921Z,20.9
2015-05-13T03:06:15.188Z,20.9
2015-05-13T03:06:33.423Z,20.9
2015-05-13T03:06:51.673Z,20.9
2015-05-13T03:07:09.923Z,20.9
2015-05-13T03:07:28.159Z,20.9
2015-05-13T03:07:46.409Z,20.9
2015-05-13T03:08:04.675Z,20.9
2015-05-13T03:08:22.912Z,20.9
2015-05-13T03:08:41.162Z,20.9
2015-05-13T03:08:59.412Z,20.9
2015-05-13T03:09:17.664Z,20.9
2015-05-13T03:09:35.914Z,20.9
2015-05-13T03:09:54.164Z,20.9
2015-05-13T03:10:12.399Z,21
2015-05-13T03:10:30.651Z,20.9
2015-05-13T03:10:48.901Z,20.9
2015-05-13T03:11:07.151Z,20.9
2015-05-13T03:11:25.388Z,20.9
2015-05-13T03:11:43.638Z,20.9
2015-05-13T03:12:01.888Z,20.9
2015-05-13T03:12:20.124Z,20.9
2015-05-13T03:12:38.374Z,20.9
2015-05-13T03:12:56.624Z,20.9
2015-05-13T03:13:14.874Z,20.9
2015-05-13T03:13:33.111Z,20.9
2015-05-13T03:13:51.361Z,20.9
2015-05-13T03:14:09.611Z,20.9
2015-05-13T03:14:27.864Z,20.9
2015-05-13T03:14:46.114Z,20.9
2015-05-13T03:15:04.364Z,20.9
2015-05-13T03:15:22.616Z,20.9
2015-05-13T03:15:40.850Z,20.9
2015-05-13T03:15:59.105Z,20.9
2015-05-13T03:16:17.355Z,20.9
2015-05-13T03:16:35.591Z,20.9
2015-05-13T03:16:53.841Z,21
2015-05-13T03:17:12.091Z,21
2015-05-13T03:17:30.328Z,21
2015-05-13T03:17:48.593Z,21
2015-05-13T03:18:06.828Z,21
2015-05-13T03:18:25.081Z,21
2015-05-13T03:18:43.331Z,21
2015-05-13T03:19:01.581Z,21
2015-05-13T03:19:19.833Z,21
2015-05-13T03:19:38.067Z,21
2015-05-13T03:19:56.317Z,21
2015-05-13T03:20:14.567Z,21
2015-05-13T03:20:32.804Z,21
2015-05-13T03:20:51.054Z,21
2015-05-13T03:21:09.304Z,21
2015-05-13T03:21:27.541Z,21
2015-05-13T03:21:45.791Z,21
2015-05-13T03:22:04.041Z,21
2015-05-13T03:22:22.277Z,21
2015-05-13T03:22:40.527Z,21
2015-05-13T03:22:58.793Z,21
2015-05-13T03:23:17.043Z,21
2015-05-13T03:23:35.295Z,21
2015-05-13T03:23:53.529Z,21
2015-05-13T03:24:11.779Z,21
2015-05-13T03:24:30.017Z,21
2015-05-13T03:24:48.267Z,21
2015-05-13T03:25:06.517Z,20.9
2015-05-13T03:25:24.769Z,20.9
2015-05-13T03:25:43.019Z,21
2015-05-13T03:26:01.253Z,20.9
2015-05-13T03:26:19.503Z,20.9
2015-05-13T03:26:37.772Z,20.9
2015-05-13T03:26:56.022Z,20.9
2015-05-13T03:27:14.287Z,20.9
2015-05-13T03:27:32.539Z,20.9
2015-05-13T03:27:50.774Z,20.9
2015-05-13T03:28:09.024Z,20.9
2015-05-13T03:28:27.276Z,20.9
2015-05-13T03:28:45.526Z,20.9
2015-05-13T03:29:03.776Z,20.9
2015-05-13T03:29:22.012Z,20.9
2015-05-13T03:29:40.262Z,20.9
2015-05-13T03:29:58.512Z,20.9
2015-05-13T03:30:16.762Z,20.9
2015-05-13T03:30:35.015Z,20.9
2015-05-13T03:30:53.249Z,20.9
2015-05-13T03:31:11.499Z,20.9
2015-05-13T03:31:29.751Z,20.9
2015-05-13T03:31:48.001Z,20.9
2015-05-13T03:32:06.236Z,20.9
2015-05-13T03:32:24.488Z,20.9
2015-05-13T03:32:42.738Z,20.9
2015-05-13T03:33:00.988Z,20.9
2015-05-13T03:33:19.238Z,20.9
2015-05-13T03:33:37.475Z,20.9
2015-05-13T03:33:55.725Z,20.9
2015-05-13T03:34:13.975Z,20.9
2015-05-13T03:34:32.226Z,20.9
2015-05-13T03:34:50.460Z,20.9
2015-05-13T03:35:08.710Z,20.9
2015-05-13T03:35:26.964Z,20.9
2015-05-13T03:35:45.214Z,20.9
2015-05-13T03:36:03.464Z,20.9
2015-05-13T03:36:21.714Z,20.9
2015-05-13T03:36:39.951Z,20.9
2015-05-13T03:36:58.201Z,20.9
2015-05-13T03:37:16.451Z,20.9
2015-05-13T03:37:34.703Z,20.9
2015-05-13T03:37:52.937Z,20.9
2015-05-13T03:38:11.187Z,20.9
2015-05-13T03:38:29.439Z,20.9
2015-05-13T03:38:47.689Z,20.9
2015-05-13T03:39:05.939Z,20.9
2015-05-13T03:39:24.189Z,20.9
2015-05-13T03:39:42.442Z,20.9
2015-05-13T03:40:00.723Z,20.9
2015-05-13T03:40:18.927Z,20.9
2015-05-13T03:40:37.178Z,20.9
2015-05-13T03:40:55.428Z,20.9
2015-05-13T03:41:13.678Z,20.9
2015-05-13T03:41:31.931Z,20.9
2015-05-13T03:41:50.181Z,20.9
2015-05-13T03:42:08.431Z,20.9
2015-05-13T03:42:26.667Z,20.9
2015-05-13T03:42:44.917Z,20.9
2015-05-13T03:43:03.167Z,20.9
2015-05-13T03:43:21.417Z,20.9
2015-05-13T03:43:39.514Z,20.9
2015-05-13T03:43:57.764Z,20.9
2015-05-13T03:44:16.014Z,20.9
2015-05-13T03:44:34.251Z,20.9
2015-05-13T03:44:52.501Z,20.9
2015-05-13T03:45:10.751Z,20.9
2015-05-13T03:45:28.986Z,20.9
2015-05-13T03:45:47.236Z,20.9
2015-05-13T03:46:05.490Z,20.9
2015-05-13T03:46:23.740Z,20.9
2015-05-13T03:46:41.993Z,20.9
2015-05-13T03:47:00.243Z,20.9
2015-05-13T03:47:18.493Z,20.7
2015-05-13T03:47:36.730Z,19.9
2015-05-13T03:47:54.995Z,19.4
2015-05-13T03:48:13.245Z,19.1
2015-05-13T03:48:31.483Z,18.9
2015-05-13T03:48:49.733Z,18.6
2015-05-13T03:49:07.983Z,18.6
2015-05-13T03:49:26.233Z,18.6
2015-05-13T03:49:44.485Z,18.4
2015-05-13T03:50:02.719Z,18.4
2015-05-13T03:50:20.985Z,18.4
2015-05-13T03:50:39.221Z,18.5
2015-05-13T03:50:57.460Z,18.6
2015-05-13T03:51:15.710Z,18.6
2015-05-13T03:51:33.962Z,18.6
2015-05-13T03:51:52.212Z,18.7
2015-05-13T03:52:10.462Z,18.4
2015-05-13T03:52:28.714Z,18.5
2015-05-13T03:52:46.964Z,18.6
2015-05-13T03:53:05.214Z,18.6
2015-05-13T03:53:23.464Z,18.6
2015-05-13T03:53:41.717Z,18.4
2015-05-13T03:53:59.967Z,18.4
2015-05-13T03:54:18.202Z,18.2
2015-05-13T03:54:36.468Z,18.3
2015-05-13T03:54:54.718Z,18.3
2015-05-13T03:55:12.968Z,18
2015-05-13T03:55:31.221Z,17.9
2015-05-13T03:55:49.471Z,18
2015-05-13T03:56:07.721Z,18.1
2015-05-13T03:56:25.971Z,18.1
2015-05-13T03:56:44.223Z,18.3
2015-05-13T03:57:02.473Z,18.3
2015-05-13T03:57:20.723Z,18.4
2015-05-13T03:57:38.975Z,18.2
2015-05-13T03:57:57.225Z,18
2015-05-13T03:58:15.460Z,18
2015-05-13T03:58:33.713Z,18.2
2015-05-13T03:58:51.963Z,18.3
2015-05-13T03:59:10.213Z,18.2
2015-05-13T03:59:28.463Z,18.3
2015-05-13T03:59:46.715Z,18.1
2015-05-13T04:00:04.949Z,18.1
2015-05-13T04:00:23.199Z,18
2015-05-13T04:00:41.451Z,18.1
2015-05-13T04:00:59.701Z,18.3
2015-05-13T04:01:17.951Z,18.3
2015-05-13T04:01:36.204Z,18.4
2015-05-13T04:01:54.438Z,18.3
2015-05-13T04:02:12.688Z,18.4
2015-05-13T04:02:30.938Z,18.4
2015-05-13T04:02:49.190Z,18.5
2015-05-13T04:03:07.425Z,18.4
2015-05-13T04:03:25.675Z,18.3
2015-05-13T04:03:43.927Z,18.1
2015-05-13T04:04:02.192Z,17.6
2015-05-13T04:04:20.427Z,17.5
2015-05-13T04:04:38.680Z,17.5
2015-05-13T04:04:56.914Z,17.4
2015-05-13T04:05:15.164Z,17.6
2015-05-13T04:05:33.415Z,17.6
2015-05-13T04:05:51.665Z,17.7
2015-05-13T04:06:09.915Z,17.6
2015-05-13T04:06:28.150Z,17.8
2015-05-13T04:06:46.418Z,17.7
2015-05-13T04:07:04.668Z,17.7